Time;durP1;ratioP1;P1;durP2;ratioP2;P2;SDS_P1;SDS_P2;PMS_P1;PMS_P2;Temp;Humidity;BMP_temperature;BMP_pressure;BME280_temperature;BME280_humidity;BME280_pressure;Samples;Min_cycle;Max_cycle;Signal;HPM_P1;HPM_P2
2023/09/28 00:02:21;;;;;;;0.50;0.40;;;20.30;99.90;;;;;;5059204;28;20442;-81
2023/09/28 00:04:48;;;;;;;0.50;0.30;;;20.30;99.90;;;;;;5074698;28;20453;-80
2023/09/28 00:07:14;;;;;;;0.50;0.30;;;20.30;99.90;;;;;;5074323;28;20520;-79
2023/09/28 00:09:41;;;;;;;0.50;0.30;;;20.30;99.90;;;;;;5074655;28;20446;-80
2023/09/28 00:12:06;;;;;;;0.50;0.30;;;20.30;99.90;;;;;;5074796;28;20434;-80
2023/09/28 00:14:35;;;;;;;0.50;0.30;;;20.30;99.90;;;;;;5074327;28;20445;-82
2023/09/28 00:17:02;;;;;;;0.50;0.30;;;20.20;99.90;;;;;;5073916;28;20204;-78
2023/09/28 00:19:29;;;;;;;0.50;0.40;;;20.20;99.90;;;;;;5074471;28;20427;-80
2023/09/28 00:21:55;;;;;;;0.50;0.30;;;20.20;99.90;;;;;;5074403;28;20485;-80
2023/09/28 00:24:23;;;;;;;0.50;0.30;;;20.20;99.90;;;;;;5073790;28;20828;-80
2023/09/28 00:26:51;;;;;;;0.50;0.30;;;20.20;99.90;;;;;;5074337;28;20461;-80
2023/09/28 00:29:18;;;;;;;0.50;0.50;;;20.20;99.90;;;;;;5074207;28;20808;-77
2023/09/28 00:31:46;;;;;;;0.70;0.43;;;20.10;99.90;;;;;;5074546;28;20446;-79
2023/09/28 00:34:12;;;;;;;0.50;0.30;;;20.20;99.90;;;;;;5074051;28;20960;-80
2023/09/28 00:36:38;;;;;;;0.73;0.70;;;20.20;99.90;;;;;;5074274;28;20447;-81
2023/09/28 00:39:05;;;;;;;2.20;0.70;;;20.20;99.90;;;;;;5074634;28;20203;-80
2023/09/28 00:41:32;;;;;;;0.50;0.30;;;20.20;99.90;;;;;;5074367;28;20502;-80
2023/09/28 00:43:59;;;;;;;0.50;0.40;;;20.20;99.90;;;;;;5074582;28;20456;-79
2023/09/28 00:46:31;;;;;;;0.50;0.30;;;20.20;99.90;;;;;;5057860;28;20437;-79
2023/09/28 00:49:03;;;;;;;0.60;0.50;;;20.20;99.90;;;;;;5074551;28;20938;-79
2023/09/28 00:51:31;;;;;;;0.50;0.30;;;20.20;99.90;;;;;;5073832;28;20450;-79
2023/09/28 00:54:00;;;;;;;0.50;0.30;;;20.20;99.90;;;;;;5074366;28;20473;-81
2023/09/28 00:56:28;;;;;;;0.50;0.30;;;20.20;99.90;;;;;;5058304;28;20469;-79
2023/09/28 00:58:56;;;;;;;0.50;0.30;;;20.20;99.90;;;;;;5074543;28;20818;-80
2023/09/28 01:01:25;;;;;;;0.60;0.50;;;20.20;99.90;;;;;;5075208;28;20530;-79
2023/09/28 01:03:52;;;;;;;0.50;0.30;;;20.20;99.90;;;;;;5074027;28;20512;-80
2023/09/28 01:06:20;;;;;;;0.50;0.30;;;20.20;99.90;;;;;;5073768;28;20478;-80
2023/09/28 01:08:46;;;;;;;0.50;0.30;;;20.30;99.90;;;;;;5074007;28;20442;-80
2023/09/28 01:11:13;;;;;;;1.43;0.60;;;20.30;99.90;;;;;;5074417;28;20434;-80
2023/09/28 01:13:39;;;;;;;1.90;1.80;;;20.30;99.90;;;;;;5074959;28;20450;-80
2023/09/28 01:16:06;;;;;;;0.50;0.40;;;20.30;99.90;;;;;;5075599;28;20456;-80
2023/09/28 01:18:31;;;;;;;0.50;0.50;;;20.30;99.90;;;;;;5075644;28;20210;-82
2023/09/28 01:20:59;;;;;;;0.50;0.30;;;20.30;99.90;;;;;;5076725;28;20477;-80
2023/09/28 01:23:26;;;;;;;13.90;1.60;;;20.20;99.90;;;;;;5076745;28;20227;-80
2023/09/28 01:25:53;;;;;;;0.50;0.30;;;20.20;99.90;;;;;;5076891;28;20457;-83
2023/09/28 01:28:19;;;;;;;0.50;0.40;;;20.20;99.90;;;;;;5076352;28;20457;-82
2023/09/28 01:30:46;;;;;;;0.50;0.50;;;20.20;99.90;;;;;;5076741;28;20518;-81
2023/09/28 01:33:12;;;;;;;0.50;0.30;;;20.20;99.90;;;;;;5075979;28;20472;-81
2023/09/28 01:35:40;;;;;;;1.00;0.60;;;20.20;99.90;;;;;;5076647;28;20437;-83
2023/09/28 01:38:15;;;;;;;0.50;0.40;;;20.20;99.90;;;;;;5076492;28;20438;-83
2023/09/28 01:40:44;;;;;;;0.50;0.40;;;20.20;99.90;;;;;;5076040;28;20852;-81
2023/09/28 01:43:10;;;;;;;0.60;0.60;;;20.20;99.90;;;;;;5075633;28;20460;-79
2023/09/28 01:45:37;;;;;;;0.50;0.50;;;20.10;99.90;;;;;;5075588;28;20430;-81
2023/09/28 01:48:03;;;;;;;0.67;0.60;;;20.10;99.90;;;;;;5076388;28;20388;-81
2023/09/28 01:50:30;;;;;;;0.70;0.50;;;20.10;99.90;;;;;;5076017;28;20444;-82
2023/09/28 01:52:57;;;;;;;0.70;0.40;;;20.10;99.90;;;;;;5075770;28;20462;-81
2023/09/28 01:55:23;;;;;;;0.50;0.30;;;20.00;99.90;;;;;;5075904;28;20441;-80
2023/09/28 01:57:51;;;;;;;0.50;0.30;;;20.00;99.90;;;;;;5075467;28;20994;-80
2023/09/28 02:00:19;;;;;;;0.50;0.40;;;20.00;99.90;;;;;;5075474;28;20480;-82
2023/09/28 02:02:47;;;;;;;0.50;0.33;;;19.90;99.90;;;;;;5074938;28;21007;-82
2023/09/28 02:05:16;;;;;;;0.50;0.40;;;20.00;99.90;;;;;;5075152;28;20488;-79
2023/09/28 02:07:44;;;;;;;0.50;0.30;;;19.90;99.90;;;;;;5075287;28;20446;-82
2023/09/28 02:10:10;;;;;;;0.50;0.40;;;19.90;99.90;;;;;;5075761;28;20924;-81
2023/09/28 02:12:40;;;;;;;0.50;0.30;;;19.90;99.90;;;;;;5074987;28;20466;-81
2023/09/28 02:15:09;;;;;;;0.50;0.30;;;19.90;99.90;;;;;;5075638;28;20534;-81
2023/09/28 02:17:36;;;;;;;0.50;0.30;;;19.90;99.90;;;;;;5059121;28;20439;-81
2023/09/28 02:20:05;;;;;;;0.50;0.30;;;19.80;99.90;;;;;;5075667;28;20438;-81
2023/09/28 02:22:32;;;;;;;0.50;0.30;;;19.90;99.90;;;;;;5074467;28;20457;-82
2023/09/28 02:24:58;;;;;;;3.53;3.23;;;19.80;99.90;;;;;;5075259;28;20454;-81
2023/09/28 02:27:24;;;;;;;0.50;0.50;;;19.80;99.90;;;;;;5075011;28;20530;-81
2023/09/28 02:29:50;;;;;;;0.50;0.30;;;19.70;99.90;;;;;;5074826;28;20695;-82
2023/09/28 02:32:18;;;;;;;0.50;0.30;;;19.70;99.90;;;;;;5074186;28;20433;-81
2023/09/28 02:34:44;;;;;;;0.50;0.40;;;19.80;99.90;;;;;;5074977;28;20192;-82
2023/09/28 02:37:11;;;;;;;0.50;0.40;;;19.80;99.90;;;;;;5074682;28;20571;-81
2023/09/28 02:39:37;;;;;;;0.50;0.40;;;19.80;99.90;;;;;;5075541;28;20196;-82
2023/09/28 02:42:07;;;;;;;0.50;0.30;;;19.70;99.90;;;;;;5074643;28;20474;-81
2023/09/28 02:44:33;;;;;;;0.50;0.50;;;19.70;99.90;;;;;;5074789;28;20447;-81
2023/09/28 02:47:00;;;;;;;0.50;0.30;;;19.70;99.90;;;;;;5074900;28;20448;-82
2023/09/28 02:49:27;;;;;;;0.50;0.50;;;19.60;99.90;;;;;;5074775;28;20196;-81
2023/09/28 02:51:54;;;;;;;0.50;0.40;;;19.60;99.90;;;;;;5074774;28;20438;-80
2023/09/28 02:54:20;;;;;;;0.50;0.40;;;19.60;99.90;;;;;;5074468;28;20514;-82
2023/09/28 02:56:49;;;;;;;0.50;0.30;;;19.50;99.90;;;;;;5074201;28;20446;-81
2023/09/28 02:59:16;;;;;;;0.50;0.40;;;19.50;99.90;;;;;;5074597;28;20441;-81
2023/09/28 03:01:43;;;;;;;0.90;0.67;;;19.60;99.90;;;;;;5074532;28;20470;-82
2023/09/28 03:04:11;;;;;;;0.50;0.30;;;19.50;99.90;;;;;;5073680;28;20458;-81
2023/09/28 03:06:40;;;;;;;0.50;0.30;;;19.50;99.90;;;;;;5071823;28;20472;-80
2023/09/28 03:09:08;;;;;;;0.50;0.30;;;19.50;99.90;;;;;;5072482;28;20819;-79
2023/09/28 03:11:34;;;;;;;0.50;0.40;;;19.50;99.90;;;;;;5072226;28;20472;-82
2023/09/28 03:14:01;;;;;;;0.50;0.30;;;19.50;99.90;;;;;;5072334;28;20891;-80
2023/09/28 03:16:27;;;;;;;0.67;0.67;;;19.50;99.90;;;;;;5071919;28;20651;-80
2023/09/28 03:18:56;;;;;;;0.50;0.30;;;19.50;99.90;;;;;;5071919;28;20430;-81
2023/09/28 03:21:22;;;;;;;0.60;0.50;;;19.50;99.90;;;;;;5071648;28;20215;-79
2023/09/28 03:23:51;;;;;;;0.50;0.30;;;19.40;99.90;;;;;;5072768;28;20462;-81
2023/09/28 03:26:17;;;;;;;0.50;0.40;;;19.50;99.90;;;;;;5071399;28;20442;-80
2023/09/28 03:28:44;;;;;;;0.60;0.47;;;19.50;99.90;;;;;;5066172;28;20589;-80
2023/09/28 03:31:11;;;;;;;0.50;0.40;;;19.50;99.90;;;;;;5057364;28;20200;-80
2023/09/28 03:33:38;;;;;;;0.50;0.30;;;19.50;99.90;;;;;;5071203;28;20498;-80
2023/09/28 03:36:04;;;;;;;0.50;0.40;;;19.40;99.90;;;;;;5072263;28;20447;-80
2023/09/28 03:38:31;;;;;;;0.50;0.30;;;19.40;99.90;;;;;;5071421;28;20438;-80
2023/09/28 03:40:59;;;;;;;0.50;0.40;;;19.40;99.90;;;;;;5073392;28;20507;-82
2023/09/28 03:43:26;;;;;;;0.50;0.30;;;19.30;99.90;;;;;;5075525;28;20553;-80
2023/09/28 03:45:53;;;;;;;0.50;0.30;;;19.30;99.90;;;;;;5078734;28;20446;-81
2023/09/28 03:48:20;;;;;;;0.50;0.47;;;19.30;99.90;;;;;;5078318;28;20447;-81
2023/09/28 03:50:46;;;;;;;0.50;0.40;;;19.30;99.90;;;;;;5076897;28;20434;-80
2023/09/28 03:53:13;;;;;;;0.50;0.30;;;19.30;99.90;;;;;;5075725;28;20536;-79
2023/09/28 03:55:40;;;;;;;0.50;0.40;;;19.20;99.90;;;;;;5075591;28;20433;-80
2023/09/28 03:58:09;;;;;;;0.50;0.30;;;19.20;99.90;;;;;;5076016;28;20483;-81
2023/09/28 04:00:35;;;;;;;0.50;0.40;;;19.10;99.90;;;;;;5076523;28;20445;-82
2023/09/28 04:03:02;;;;;;;0.50;0.40;;;19.10;99.90;;;;;;5075449;28;20810;-78
2023/09/28 04:05:29;;;;;;;0.60;0.30;;;19.10;99.90;;;;;;5074516;28;20824;-81
2023/09/28 04:07:56;;;;;;;0.50;0.40;;;19.20;99.90;;;;;;5075030;28;20438;-81
2023/09/28 04:10:22;;;;;;;0.50;0.37;;;19.10;99.90;;;;;;5075326;28;20443;-80
2023/09/28 04:12:48;;;;;;;0.50;0.40;;;19.00;99.90;;;;;;5075584;28;20580;-82
2023/09/28 04:15:17;;;;;;;0.50;0.40;;;19.00;99.90;;;;;;5075968;28;20478;-80
2023/09/28 04:17:44;;;;;;;0.50;0.40;;;19.00;99.90;;;;;;5075469;28;20203;-82
2023/09/28 04:20:12;;;;;;;0.50;0.40;;;18.90;99.90;;;;;;5061530;28;20504;-81
2023/09/28 04:22:39;;;;;;;0.50;0.30;;;18.90;99.90;;;;;;5069946;28;20492;-81
2023/09/28 04:25:07;;;;;;;0.53;0.43;;;18.90;99.90;;;;;;5072689;28;20450;-81
2023/09/28 04:27:34;;;;;;;0.77;0.70;;;18.80;99.90;;;;;;5074143;28;20435;-82
2023/09/28 04:30:01;;;;;;;0.50;0.30;;;18.80;99.90;;;;;;5075361;28;20446;-80
2023/09/28 04:32:29;;;;;;;0.50;0.40;;;18.70;99.90;;;;;;5074216;28;20440;-80
2023/09/28 04:34:57;;;;;;;0.50;0.30;;;18.70;99.90;;;;;;5074215;28;20536;-82
2023/09/28 04:37:26;;;;;;;1.10;1.10;;;18.60;99.90;;;;;;5074678;28;20436;-80
2023/09/28 04:39:53;;;;;;;0.70;0.60;;;18.60;99.90;;;;;;5073032;22;20490;-81
2023/09/28 04:42:20;;;;;;;0.50;0.30;;;18.60;99.90;;;;;;5069799;28;20504;-82
2023/09/28 04:44:47;;;;;;;0.50;0.40;;;18.60;99.90;;;;;;5065552;28;20473;-83
2023/09/28 04:47:14;;;;;;;0.50;0.30;;;18.60;99.90;;;;;;5065200;28;20444;-82
2023/09/28 04:49:42;;;;;;;0.70;0.60;;;18.60;99.90;;;;;;5077835;28;20479;-84
2023/09/28 04:52:10;;;;;;;0.70;0.70;;;18.50;99.90;;;;;;5078282;28;20945;-82
2023/09/28 04:54:37;;;;;;;0.50;0.30;;;18.60;99.90;;;;;;5076916;28;20446;-81
2023/09/28 04:57:04;;;;;;;0.50;0.40;;;18.50;99.90;;;;;;5078279;28;20441;-83
2023/09/28 04:59:31;;;;;;;0.50;0.30;;;18.50;99.90;;;;;;5078400;28;20462;-82
2023/09/28 05:01:58;;;;;;;0.50;0.40;;;18.50;99.90;;;;;;5078651;28;20478;-83
2023/09/28 05:04:24;;;;;;;0.57;0.57;;;18.50;99.90;;;;;;5077275;28;20438;-80
2023/09/28 05:06:53;;;;;;;0.50;0.30;;;18.40;99.90;;;;;;5077098;28;20449;-83
2023/09/28 05:09:19;;;;;;;0.50;0.40;;;18.40;99.90;;;;;;5078235;28;20547;-83
2023/09/28 05:11:46;;;;;;;0.50;0.30;;;18.40;99.90;;;;;;5069069;28;20450;-84
2023/09/28 05:14:13;;;;;;;0.50;0.30;;;18.30;99.90;;;;;;5078319;28;20979;-83
2023/09/28 05:16:40;;;;;;;0.50;0.30;;;18.30;99.90;;;;;;5077608;28;20438;-83
2023/09/28 05:19:07;;;;;;;0.50;0.37;;;18.30;99.90;;;;;;5078254;28;20517;-83
2023/09/28 05:21:34;;;;;;;0.50;0.40;;;18.20;99.90;;;;;;5077899;28;20474;-83
2023/09/28 05:24:02;;;;;;;1.37;1.27;;;18.20;99.90;;;;;;5078322;28;20453;-83
2023/09/28 05:26:29;;;;;;;0.50;0.40;;;18.10;99.90;;;;;;5072173;28;20529;-82
2023/09/28 05:28:56;;;;;;;0.50;0.30;;;18.10;99.90;;;;;;5079423;28;20463;-79
2023/09/28 05:31:23;;;;;;;0.50;0.40;;;18.00;99.90;;;;;;5078399;28;20439;-83
2023/09/28 05:33:50;;;;;;;1.73;1.63;;;18.00;99.90;;;;;;5079419;28;20444;-83
2023/09/28 05:36:17;;;;;;;0.50;0.40;;;18.00;99.90;;;;;;5078787;28;20437;-81
2023/09/28 05:38:43;;;;;;;0.50;0.40;;;17.90;99.90;;;;;;5075687;28;20868;-83
2023/09/28 05:41:11;;;;;;;0.50;0.37;;;17.90;99.90;;;;;;5072894;28;20438;-83
2023/09/28 05:43:38;;;;;;;0.50;0.40;;;17.80;99.90;;;;;;5078667;28;20552;-83
2023/09/28 05:46:06;;;;;;;0.50;0.40;;;17.80;99.90;;;;;;5078568;28;20459;-80
2023/09/28 05:48:33;;;;;;;0.50;0.40;;;17.80;99.90;;;;;;5078430;28;20465;-83
2023/09/28 05:51:00;;;;;;;0.50;0.40;;;17.80;99.90;;;;;;5078572;28;20437;-81
2023/09/28 05:53:27;;;;;;;0.50;0.40;;;17.80;99.90;;;;;;5079733;28;20447;-83
2023/09/28 05:55:54;;;;;;;0.50;0.37;;;17.80;99.90;;;;;;5078662;28;20443;-83
2023/09/28 05:58:22;;;;;;;0.50;0.40;;;17.90;99.90;;;;;;5069828;28;20460;-83
2023/09/28 06:00:49;;;;;;;0.70;0.70;;;18.00;99.90;;;;;;5078014;28;20520;-83
2023/09/28 06:03:16;;;;;;;0.50;0.40;;;18.00;99.90;;;;;;5079129;28;20871;-81
2023/09/28 06:05:42;;;;;;;0.50;0.30;;;18.00;99.90;;;;;;5070374;28;20441;-83
2023/09/28 06:08:09;;;;;;;0.50;0.40;;;18.00;99.90;;;;;;5078895;28;20902;-83
2023/09/28 06:10:37;;;;;;;0.50;0.40;;;18.10;99.90;;;;;;5079080;28;20460;-83
2023/09/28 06:13:04;;;;;;;0.50;0.37;;;18.20;99.90;;;;;;5079099;28;20480;-83
2023/09/28 06:15:33;;;;;;;0.50;0.30;;;18.20;99.90;;;;;;5078495;28;20441;-81
2023/09/28 06:17:59;;;;;;;0.50;0.30;;;18.20;99.90;;;;;;5078810;28;20433;-82
2023/09/28 06:20:26;;;;;;;0.50;0.30;;;18.20;99.90;;;;;;5079161;28;20456;-83
2023/09/28 06:22:53;;;;;;;0.87;0.60;;;18.30;99.90;;;;;;5078733;28;20474;-83
2023/09/28 06:25:20;;;;;;;0.53;0.47;;;18.30;99.90;;;;;;5078625;28;20446;-83
2023/09/28 06:27:47;;;;;;;0.50;0.30;;;18.30;99.90;;;;;;5069032;28;20447;-82
2023/09/28 06:30:14;;;;;;;0.70;0.67;;;18.30;99.90;;;;;;5078158;28;20525;-82
2023/09/28 06:32:42;;;;;;;0.60;0.50;;;18.40;99.90;;;;;;5070704;28;20802;-83
2023/09/28 06:35:10;;;;;;;0.50;0.50;;;18.40;99.90;;;;;;5078930;28;20860;-83
2023/09/28 06:37:36;;;;;;;0.50;0.40;;;18.50;99.90;;;;;;5078827;28;20473;-83
2023/09/28 06:40:04;;;;;;;2.83;2.10;;;18.60;99.90;;;;;;5078789;28;20805;-83
2023/09/28 06:42:31;;;;;;;0.50;0.30;;;18.70;99.90;;;;;;5078216;28;20474;-84
2023/09/28 06:44:58;;;;;;;0.53;0.47;;;18.70;99.90;;;;;;5077678;28;20797;-84
2023/09/28 06:47:26;;;;;;;0.50;0.40;;;18.80;99.90;;;;;;5079009;28;20432;-83
2023/09/28 06:49:54;;;;;;;0.50;0.33;;;18.80;99.90;;;;;;5076873;28;20575;-82
2023/09/28 06:52:21;;;;;;;2.90;0.67;;;18.80;99.90;;;;;;5080226;28;20440;-82
2023/09/28 06:54:48;;;;;;;1.73;0.90;;;18.80;99.90;;;;;;5083924;28;20471;-82
2023/09/28 06:57:15;;;;;;;0.50;0.40;;;18.90;99.90;;;;;;5076340;28;20525;-82
2023/09/28 06:59:41;;;;;;;0.50;0.40;;;18.90;99.90;;;;;;5078477;28;20463;-83
2023/09/28 07:02:09;;;;;;;0.70;0.50;;;18.90;99.90;;;;;;5078268;28;20469;-83
2023/09/28 07:04:36;;;;;;;0.50;0.30;;;19.00;99.90;;;;;;5077684;28;20488;-82
2023/09/28 07:07:05;;;;;;;0.50;0.50;;;19.10;99.90;;;;;;5080633;28;20520;-83
2023/09/28 07:09:32;;;;;;;0.50;0.30;;;19.10;99.90;;;;;;5089368;28;20466;-82
2023/09/28 07:11:59;;;;;;;0.50;0.40;;;19.10;99.90;;;;;;5088444;28;20442;-82
2023/09/28 07:14:25;;;;;;;0.50;0.30;;;19.20;99.90;;;;;;5086657;28;20430;-81
2023/09/28 07:16:53;;;;;;;0.50;0.30;;;19.20;99.90;;;;;;5086873;28;20435;-82
2023/09/28 07:19:19;;;;;;;0.50;0.30;;;19.30;99.90;;;;;;5089589;28;20461;-82
2023/09/28 07:21:46;;;;;;;0.50;0.30;;;19.50;99.90;;;;;;5092639;28;20483;-82
2023/09/28 07:24:14;;;;;;;0.50;0.40;;;19.50;99.90;;;;;;5090621;28;20439;-83
2023/09/28 07:26:42;;;;;;;0.50;0.40;;;19.60;99.90;;;;;;5091519;28;20439;-84
2023/09/28 07:29:08;;;;;;;2.33;2.23;;;19.60;99.90;;;;;;5093137;28;20465;-82
2023/09/28 07:31:35;;;;;;;0.50;0.30;;;19.70;99.90;;;;;;5086440;28;20439;-80
2023/09/28 07:34:02;;;;;;;0.50;0.30;;;19.90;99.90;;;;;;5086093;28;20435;-81
2023/09/28 07:36:29;;;;;;;0.50;0.40;;;19.90;99.90;;;;;;5080620;28;20442;-81
2023/09/28 07:38:56;;;;;;;2.87;1.73;;;20.10;99.90;;;;;;5070151;28;20578;-79
2023/09/28 07:41:24;;;;;;;0.50;0.40;;;20.30;99.90;;;;;;5076596;28;20446;-82
2023/09/28 07:43:51;;;;;;;0.60;0.40;;;20.60;99.90;;;;;;5072904;28;20475;-82
2023/09/28 07:46:18;;;;;;;0.50;0.40;;;20.90;99.90;;;;;;5085958;28;20456;-80
2023/09/28 07:48:45;;;;;;;0.50;0.30;;;21.00;99.90;;;;;;5083207;28;20483;-82
2023/09/28 07:51:12;;;;;;;0.50;0.40;;;21.20;99.90;;;;;;5083522;28;20950;-80
2023/09/28 07:53:38;;;;;;;0.50;0.40;;;21.10;99.90;;;;;;5083771;28;20900;-80
2023/09/28 07:56:05;;;;;;;0.50;0.30;;;21.10;99.90;;;;;;5069158;28;20443;-81
2023/09/28 07:58:33;;;;;;;0.50;0.30;;;21.00;99.90;;;;;;5092428;28;20526;-82
2023/09/28 08:01:01;;;;;;;1.77;1.67;;;20.90;99.90;;;;;;5082725;28;20442;-78
2023/09/28 08:03:28;;;;;;;0.90;0.80;;;20.80;99.90;;;;;;5091343;28;20479;-81
2023/09/28 08:05:55;;;;;;;0.50;0.30;;;20.50;99.90;;;;;;5088215;28;20442;-79
2023/09/28 08:08:22;;;;;;;0.90;0.77;;;20.50;99.90;;;;;;5083368;28;20531;-80
2023/09/28 08:10:49;;;;;;;0.50;0.30;;;20.60;99.90;;;;;;5085778;28;20446;-81
2023/09/28 08:13:16;;;;;;;1.53;0.67;;;20.60;99.90;;;;;;5075184;28;20518;-80
2023/09/28 08:15:44;;;;;;;0.50;0.40;;;20.60;99.90;;;;;;5087692;28;20438;-80
2023/09/28 08:18:11;;;;;;;0.50;0.30;;;20.90;99.90;;;;;;5071372;28;20466;-81
2023/09/28 08:20:38;;;;;;;0.60;0.50;;;21.40;99.90;;;;;;5079624;28;20471;-80
2023/09/28 08:23:05;;;;;;;0.50;0.30;;;22.20;99.90;;;;;;5091604;28;20475;-80
2023/09/28 08:25:32;;;;;;;0.50;0.40;;;23.30;99.90;;;;;;5089448;28;20441;-82
2023/09/28 08:27:59;;;;;;;0.50;0.40;;;24.40;99.90;;;;;;5089777;28;20439;-80
2023/09/28 08:30:26;;;;;;;0.50;0.30;;;25.30;99.90;;;;;;5090470;28;20468;-81
2023/09/28 08:32:54;;;;;;;2.93;0.60;;;25.70;99.90;;;;;;5083290;28;20425;-84
2023/09/28 08:35:21;;;;;;;0.67;0.67;;;26.10;99.90;;;;;;5082130;28;20436;-81
2023/09/28 08:37:48;;;;;;;1.67;1.57;;;26.30;99.90;;;;;;5081493;28;20437;-82
2023/09/28 08:40:14;;;;;;;0.50;0.40;;;27.00;99.90;;;;;;5073991;28;20460;-82
2023/09/28 08:42:43;;;;;;;0.50;0.40;;;27.00;99.90;;;;;;5081300;28;20468;-82
2023/09/28 08:45:14;;;;;;;0.50;0.30;;;25.80;99.90;;;;;;5065327;28;20890;-81
2023/09/28 08:47:46;;;;;;;0.50;0.40;;;24.80;99.90;;;;;;5075234;28;20448;-81
2023/09/28 08:50:18;;;;;;;0.50;0.30;;;23.90;99.90;;;;;;5057190;28;20451;-80
2023/09/28 08:52:46;;;;;;;0.90;0.53;;;23.10;99.90;;;;;;5079573;28;20420;-79
2023/09/28 08:55:13;;;;;;;0.50;0.30;;;22.40;99.90;;;;;;5072258;28;20439;-81
2023/09/28 08:57:42;;;;;;;0.50;0.40;;;22.00;99.90;;;;;;5079632;28;20500;-82
2023/09/28 09:00:13;;;;;;;0.50;0.40;;;21.80;99.90;;;;;;5071476;28;20811;-81
2023/09/28 09:02:42;;;;;;;0.50;0.30;;;21.70;99.90;;;;;;5079522;28;21001;-82
2023/09/28 09:05:11;;;;;;;0.50;0.40;;;21.60;99.90;;;;;;5070821;28;20465;-81
2023/09/28 09:07:40;;;;;;;0.50;0.30;;;21.50;99.90;;;;;;5079564;28;20473;-82
2023/09/28 09:10:12;;;;;;;0.60;0.60;;;21.50;99.90;;;;;;5071836;28;20537;-81
2023/09/28 09:12:39;;;;;;;1.93;1.00;;;21.40;99.90;;;;;;5079138;28;20921;-81
2023/09/28 09:15:07;;;;;;;0.80;0.63;;;21.40;99.90;;;;;;5078876;28;20444;-79
2023/09/28 09:17:34;;;;;;;0.50;0.30;;;21.40;99.90;;;;;;5078683;28;20443;-81
2023/09/28 09:20:01;;;;;;;0.50;0.30;;;21.30;99.90;;;;;;5077157;28;20467;-81
2023/09/28 09:22:29;;;;;;;0.50;0.40;;;21.30;99.90;;;;;;5072647;28;20475;-81
2023/09/28 09:24:58;;;;;;;0.50;0.30;;;21.40;99.90;;;;;;5078991;28;20451;-82
2023/09/28 09:27:27;;;;;;;0.60;0.50;;;21.40;99.90;;;;;;5078887;28;20443;-84
2023/09/28 09:29:57;;;;;;;1.07;1.07;;;21.50;99.90;;;;;;5078543;28;20463;-82
2023/09/28 09:32:25;;;;;;;0.50;0.30;;;21.60;99.90;;;;;;5074027;28;20437;-82
2023/09/28 09:34:52;;;;;;;0.50;0.30;;;21.60;99.90;;;;;;5075368;28;20469;-82
2023/09/28 09:37:20;;;;;;;0.50;0.40;;;21.80;99.90;;;;;;5065905;28;20518;-82
2023/09/28 09:39:47;;;;;;;0.60;0.60;;;21.90;99.90;;;;;;5066299;28;20467;-82
2023/09/28 09:42:26;;;;;;;0.50;0.40;;;21.90;99.90;;;;;;5062354;28;20436;-82
2023/09/28 09:44:53;;;;;;;0.50;0.40;;;22.10;99.90;;;;;;5078627;28;20428;-83
2023/09/28 09:47:20;;;;;;;0.53;0.40;;;22.30;99.90;;;;;;5078758;28;20978;-83
2023/09/28 09:49:48;;;;;;;0.50;0.30;;;22.60;99.90;;;;;;5078465;28;20454;-82
2023/09/28 09:52:19;;;;;;;0.50;0.37;;;22.90;99.90;;;;;;5070488;28;20435;-83
2023/09/28 09:54:46;;;;;;;0.50;0.40;;;22.90;99.90;;;;;;5079334;28;20439;-83
2023/09/28 09:57:17;;;;;;;0.67;0.67;;;22.80;99.90;;;;;;5066223;28;20456;-83
2023/09/28 09:59:47;;;;;;;0.50;0.40;;;22.50;99.90;;;;;;5076547;28;20465;-84
2023/09/28 10:02:22;;;;;;;0.50;0.30;;;22.10;99.90;;;;;;5079512;28;20427;-83
2023/09/28 10:04:53;;;;;;;0.50;0.40;;;22.00;99.90;;;;;;5079689;28;20441;-84
2023/09/28 10:07:25;;;;;;;0.50;0.30;;;21.90;99.90;;;;;;5077264;28;20430;-84
2023/09/28 10:09:54;;;;;;;0.50;0.30;;;21.70;99.90;;;;;;5082475;28;20525;-81
2023/09/28 10:12:24;;;;;;;0.50;0.30;;;21.60;99.90;;;;;;5079465;28;20480;-84
2023/09/28 10:14:52;;;;;;;0.50;0.30;;;21.60;99.90;;;;;;5080633;28;20518;-84
2023/09/28 10:17:19;;;;;;;0.50;0.30;;;21.60;99.90;;;;;;5075443;28;20511;-83
2023/09/28 10:19:50;;;;;;;0.50;0.30;;;21.80;99.90;;;;;;5082004;28;20486;-84
2023/09/28 10:22:16;;;;;;;2.10;0.50;;;22.00;99.90;;;;;;5080118;28;20445;-84
2023/09/28 10:24:44;;;;;;;0.87;0.87;;;22.70;99.90;;;;;;5081267;28;20538;-84
2023/09/28 10:27:11;;;;;;;0.50;0.30;;;23.00;99.90;;;;;;5080619;28;20874;-83
2023/09/28 10:29:41;;;;;;;0.50;0.30;;;23.10;99.90;;;;;;5080481;28;20550;-85
2023/09/28 10:32:15;;;;;;;16.07;7.13;;;23.20;99.90;;;;;;5080477;28;20784;-83
2023/09/28 10:34:45;;;;;;;0.50;0.30;;;23.10;99.90;;;;;;5082350;28;20447;-83
2023/09/28 10:37:21;;;;;;;0.60;0.50;;;23.10;99.90;;;;;;5072680;28;21059;-86
2023/09/28 10:39:52;;;;;;;0.50;0.40;;;22.80;99.90;;;;;;5112904;22;20572;-82
2023/09/28 10:42:19;;;;;;;0.50;0.40;;;22.70;99.90;;;;;;5070005;28;20463;-82
2023/09/28 10:44:49;;;;;;;0.50;0.40;;;22.40;99.90;;;;;;5072216;28;20482;-82
2023/09/28 10:47:16;;;;;;;0.50;0.40;;;22.10;99.90;;;;;;5067739;28;20534;-83
2023/09/28 10:49:43;;;;;;;1.03;0.87;;;21.80;99.90;;;;;;5071046;28;20466;-81
2023/09/28 10:52:11;;;;;;;0.50;0.50;;;21.60;99.90;;;;;;5074417;28;20443;-82
2023/09/28 10:54:38;;;;;;;0.50;0.30;;;21.40;99.90;;;;;;5076466;28;20454;-83
2023/09/28 10:57:05;;;;;;;0.60;0.57;;;21.30;99.90;;;;;;5077205;28;20461;-83
2023/09/28 10:59:33;;;;;;;0.50;0.37;;;21.30;99.90;;;;;;5078733;28;20470;-82
2023/09/28 11:02:01;;;;;;;0.50;0.37;;;21.30;99.90;;;;;;5077078;28;20447;-82
2023/09/28 11:04:29;;;;;;;0.50;0.40;;;21.30;99.90;;;;;;5077117;28;20535;-81
2023/09/28 11:06:56;;;;;;;0.50;0.30;;;21.40;99.90;;;;;;5078276;28;20449;-82
2023/09/28 11:09:24;;;;;;;0.50;0.30;;;21.50;99.90;;;;;;5061530;28;20899;-81
2023/09/28 11:11:51;;;;;;;0.50;0.30;;;21.60;99.90;;;;;;5076753;28;20468;-82
2023/09/28 11:14:20;;;;;;;0.60;0.57;;;21.60;99.90;;;;;;5076544;28;20450;-81
2023/09/28 11:16:49;;;;;;;0.50;0.40;;;21.60;99.90;;;;;;5076932;28;20493;-82
2023/09/28 11:19:18;;;;;;;0.63;0.57;;;21.80;99.90;;;;;;5076444;28;20820;-80
2023/09/28 11:21:45;;;;;;;0.50;0.30;;;22.20;99.90;;;;;;5077919;28;20450;-80
2023/09/28 11:24:12;;;;;;;0.57;0.57;;;22.30;99.90;;;;;;5076568;28;20486;-81
2023/09/28 11:26:40;;;;;;;0.50;0.30;;;22.30;99.90;;;;;;5076570;28;21187;-81
2023/09/28 11:29:07;;;;;;;0.50;0.30;;;22.30;99.90;;;;;;5076782;28;20565;-80
2023/09/28 11:31:35;;;;;;;0.50;0.47;;;22.30;99.90;;;;;;5076772;28;20447;-80
2023/09/28 11:34:02;;;;;;;0.50;0.30;;;22.10;99.90;;;;;;5075907;28;20950;-82
2023/09/28 11:36:31;;;;;;;0.50;0.40;;;22.20;99.90;;;;;;5075687;28;20435;-80
2023/09/28 11:38:58;;;;;;;0.50;0.30;;;22.30;99.90;;;;;;5075575;28;20590;-83
2023/09/28 11:41:24;;;;;;;0.50;0.30;;;22.50;99.90;;;;;;5076631;28;20431;-82
2023/09/28 11:43:53;;;;;;;1.37;1.27;;;22.70;99.90;;;;;;5075334;28;20487;-82
2023/09/28 11:46:20;;;;;;;0.50;0.30;;;22.70;99.90;;;;;;5076603;28;20814;-79
2023/09/28 11:48:46;;;;;;;0.80;0.53;;;22.60;99.90;;;;;;5076161;28;20468;-82
2023/09/28 11:51:16;;;;;;;0.50;0.30;;;22.50;99.90;;;;;;5075484;28;20444;-81
2023/09/28 11:53:44;;;;;;;0.50;0.37;;;22.60;99.90;;;;;;5076547;28;20448;-81
2023/09/28 11:56:11;;;;;;;0.50;0.30;;;22.60;99.90;;;;;;5075930;28;20442;-80
2023/09/28 11:58:38;;;;;;;0.50;0.40;;;22.40;99.90;;;;;;5075309;28;20458;-81
2023/09/28 12:01:05;;;;;;;0.50;0.40;;;22.20;99.90;;;;;;5075583;28;20542;-80
2023/09/28 12:03:33;;;;;;;0.50;0.40;;;22.20;99.90;;;;;;5076262;28;20479;-81
2023/09/28 12:06:00;;;;;;;0.50;0.40;;;22.20;99.90;;;;;;5078558;28;21012;-80
2023/09/28 12:08:28;;;;;;;5.40;4.10;;;22.20;99.90;;;;;;5078681;28;20918;-81
2023/09/28 12:10:57;;;;;;;0.70;0.67;;;22.10;99.90;;;;;;5079245;28;20443;-81
2023/09/28 12:13:24;;;;;;;0.60;0.60;;;22.20;99.90;;;;;;5078846;28;20438;-79
2023/09/28 12:15:51;;;;;;;0.50;0.30;;;22.10;99.90;;;;;;5078151;28;20509;-82
2023/09/28 12:18:18;;;;;;;0.50;0.30;;;22.00;99.90;;;;;;5077665;28;20441;-81
2023/09/28 12:20:45;;;;;;;0.50;0.40;;;22.00;99.90;;;;;;5078871;28;20454;-81
2023/09/28 12:23:12;;;;;;;0.50;0.30;;;21.80;99.90;;;;;;5078182;28;20508;-80
2023/09/28 12:25:40;;;;;;;1.93;1.83;;;21.80;99.90;;;;;;5077580;28;20810;-80
2023/09/28 12:28:08;;;;;;;0.50;0.30;;;21.90;99.90;;;;;;5077270;28;20449;-81
2023/09/28 12:30:35;;;;;;;0.50;0.33;;;21.80;99.90;;;;;;5077812;28;20518;-82
2023/09/28 12:33:02;;;;;;;0.50;0.37;;;21.80;99.90;;;;;;5077705;28;20853;-80
2023/09/28 12:35:29;;;;;;;0.50;0.30;;;21.80;99.90;;;;;;5077518;28;20427;-80
2023/09/28 12:37:56;;;;;;;0.50;0.30;;;21.90;99.90;;;;;;5079450;28;20438;-81
2023/09/28 12:40:23;;;;;;;0.50;0.30;;;21.90;99.90;;;;;;5081201;28;20471;-81
2023/09/28 12:42:50;;;;;;;0.83;0.83;;;22.10;99.90;;;;;;5077496;28;20463;-81
2023/09/28 12:45:18;;;;;;;0.50;0.30;;;22.10;99.90;;;;;;5076812;28;20475;-80
2023/09/28 12:47:46;;;;;;;0.77;0.53;;;22.10;99.90;;;;;;5077291;28;20447;-81
2023/09/28 12:50:14;;;;;;;0.50;0.30;;;22.30;99.90;;;;;;5077842;28;20487;-82